createdAt,value
2018-07-06T05:18:54.346Z,45.01
2018-07-06T05:19:54.301Z,44.92
2018-07-06T05:21:47.925Z,41.08
2018-07-06T05:22:47.891Z,43.57
2018-07-06T05:24:41.464Z,44.73
2018-07-06T05:25:41.451Z,44.63
2018-07-06T05:27:35.130Z,36.38
2018-07-06T05:28:35.005Z,38.10
2018-07-06T05:30:28.694Z,33.69
2018-07-06T05:31:28.681Z,35.22
2018-07-06T05:33:22.305Z,39.45
2018-07-06T05:34:22.262Z,39.93
2018-07-06T05:36:15.970Z,37.72
2018-07-06T05:37:15.940Z,37.05
2018-07-06T05:39:09.605Z,36.57
2018-07-06T05:40:09.603Z,34.94
2018-07-06T05:43:35.562Z,34.45
2018-07-06T05:44:35.545Z,32.34
2018-07-06T05:46:29.203Z,33.78
2018-07-06T05:47:29.171Z,29.17
2018-07-06T05:49:22.853Z,32.54
2018-07-06T05:50:22.837Z,32.06
2018-07-06T05:52:16.426Z,29.08
2018-07-06T05:53:16.388Z,30.33
2018-07-06T05:54:16.388Z,31.38
2018-07-06T05:55:16.386Z,35.03
2018-07-06T05:56:16.382Z,32.44
2018-07-06T05:57:16.382Z,33.21
2018-07-06T05:58:16.382Z,35.99
2018-07-06T05:59:16.426Z,35.03
2018-07-06T06:00:16.386Z,32.15
2018-07-06T06:01:16.377Z,31.77
2018-07-06T06:02:16.371Z,30.14
2018-07-06T06:03:16.378Z,35.13
2018-07-06T06:04:16.371Z,31.77
2018-07-06T06:05:16.373Z,34.45
2018-07-06T06:06:16.368Z,32.25
2018-07-06T06:07:16.369Z,32.64
2018-07-06T06:08:16.361Z,33.31
2018-07-06T06:09:16.354Z,33.50
2018-07-06T06:10:16.358Z,39.64
2018-07-06T06:11:16.352Z,35.13
2018-07-06T06:12:16.395Z,38.20
2018-07-06T06:13:16.354Z,35.80
2018-07-06T06:14:17.292Z,36.95
2018-07-06T06:15:16.347Z,39.93
2018-07-06T06:16:16.345Z,39.95
2018-07-06T06:17:16.346Z,43.02
2018-07-06T06:18:16.340Z,41.67
2018-07-06T06:19:16.339Z,41.96
2018-07-06T06:20:16.339Z,44.56
2018-07-06T06:21:16.338Z,47.92
2018-07-06T06:22:16.335Z,48.40
2018-07-06T06:23:16.332Z,50.70
2018-07-06T06:24:16.330Z,46.48
2018-07-06T06:25:16.332Z,50.80
2018-07-06T06:26:16.330Z,48.40
2018-07-06T06:27:16.327Z,50.63
2018-07-06T06:28:16.329Z,53.90
2018-07-06T06:29:16.375Z,53.23
2018-07-06T06:30:16.321Z,57.75
2018-07-06T06:31:16.321Z,57.75
2018-07-06T06:32:16.317Z,56.40
2018-07-06T06:33:16.381Z,58.13
2018-07-06T06:34:16.320Z,60.14
2018-07-06T06:35:16.319Z,59.86
2018-07-06T06:36:16.320Z,60.43
2018-07-06T06:37:16.314Z,63.79
2018-07-06T06:38:16.311Z,61.30
2018-07-06T06:39:16.312Z,63.92
2018-07-06T06:40:16.310Z,62.84
2018-07-06T06:41:16.358Z,63.83
2018-07-06T06:42:16.311Z,64.60
2018-07-06T06:43:16.307Z,66.61
2018-07-06T06:44:16.363Z,64.98
2018-07-06T06:45:16.302Z,63.35
2018-07-06T06:46:16.304Z,66.33
2018-07-06T06:47:16.326Z,64.89
2018-07-06T06:48:16.303Z,65.17
2018-07-06T06:49:16.303Z,64.98
2018-07-06T06:50:16.301Z,64.31
2018-07-06T06:51:16.300Z,66.33
2018-07-06T06:52:16.298Z,67.96
2018-07-06T06:53:16.296Z,69.89
2018-07-06T06:54:16.295Z,69.40
2018-07-06T06:55:16.307Z,70.84
2018-07-06T06:56:16.294Z,68.35
2018-07-06T06:57:16.296Z,72.03
2018-07-06T06:58:16.291Z,72.13
2018-07-06T06:59:16.313Z,70.30
2018-07-06T07:00:21.054Z,70.40
2018-07-06T07:01:16.290Z,72.42
2018-07-06T07:02:18.691Z,72.90
2018-07-06T07:03:17.179Z,72.32
2018-07-06T07:04:19.135Z,72.52
2018-07-06T07:05:17.412Z,74.05
2018-07-06T07:06:18.240Z,73.19
2018-07-06T07:07:17.054Z,74.05
2018-07-06T07:08:18.443Z,73.57
2018-07-06T07:09:24.267Z,73.28
2018-07-06T07:11:11.179Z,75.31
2018-07-06T07:12:11.144Z,74.92
2018-07-06T07:13:11.185Z,74.92
2018-07-06T07:14:11.170Z,74.73
2018-07-06T07:15:11.089Z,74.63
2018-07-06T07:16:11.096Z,76.46
2018-07-06T07:17:11.083Z,76.78
2018-07-06T07:18:11.083Z,76.56
2018-07-06T07:19:11.090Z,77.51
2018-07-06T07:20:11.081Z,76.84
2018-07-06T07:21:11.086Z,77.13
2018-07-06T07:22:11.081Z,75.88
2018-07-06T07:23:11.084Z,75.98
2018-07-06T07:24:11.081Z,74.05
2018-07-06T07:25:11.087Z,75.02
2018-07-06T07:26:11.086Z,74.25
2018-07-06T07:27:11.084Z,75.31
2018-07-06T07:28:11.084Z,75.69
2018-07-06T07:29:11.082Z,76.56
2018-07-06T07:30:11.156Z,76.75
2018-07-06T07:31:11.076Z,75.40
2018-07-06T07:32:11.079Z,74.92
2018-07-06T07:33:11.088Z,77.04
2018-07-06T07:34:11.082Z,76.84
2018-07-06T07:35:11.084Z,76.36
2018-07-06T07:36:11.079Z,77.23
2018-07-06T07:37:11.078Z,76.56
2018-07-06T07:38:11.074Z,78.42
2018-07-06T07:39:11.078Z,78.61
2018-07-06T07:40:11.078Z,78.81
2018-07-06T07:41:11.091Z,78.52
2018-07-06T07:42:11.098Z,78.23
2018-07-06T07:43:11.078Z,78.23
2018-07-06T07:44:11.071Z,78.90
2018-07-06T07:45:11.073Z,78.13
2018-07-06T07:46:11.073Z,79.86
2018-07-06T07:47:11.075Z,80.29
2018-07-06T07:48:11.075Z,82.75
2018-07-06T07:49:11.073Z,85.97
2018-07-06T07:50:11.072Z,87.41
2018-07-06T07:51:11.074Z,87.41
2018-07-06T07:52:11.073Z,87.03
2018-07-06T07:53:11.073Z,87.80
2018-07-06T07:54:11.071Z,88.18
2018-07-06T07:55:11.108Z,88.28
2018-07-06T07:56:11.077Z,89.15
2018-07-06T07:57:11.071Z,88.67
2018-07-06T07:58:11.079Z,88.28
2018-07-06T07:59:11.074Z,87.90
2018-07-06T08:00:11.081Z,87.80
2018-07-06T08:01:11.136Z,88.76
2018-07-06T08:02:11.073Z,89.63
2018-07-06T08:03:11.082Z,89.92
2018-07-06T08:04:11.075Z,90.11
2018-07-06T08:05:11.073Z,90.88
2018-07-06T08:06:11.071Z,90.88
2018-07-06T08:07:11.073Z,90.50
2018-07-06T08:08:11.074Z,91.02
2018-07-06T08:09:11.078Z,90.83
2018-07-06T08:10:11.073Z,92.18
2018-07-06T08:11:11.079Z,91.50
2018-07-06T08:12:11.074Z,91.79
2018-07-06T08:13:11.074Z,92.37
2018-07-06T08:14:11.093Z,92.41
2018-07-06T08:15:11.077Z,92.80
2018-07-06T08:16:11.078Z,92.51
2018-07-06T08:17:11.077Z,92.32
2018-07-06T08:18:11.073Z,92.41
2018-07-06T08:19:11.078Z,92.41
2018-07-06T08:20:11.074Z,92.03
2018-07-06T08:21:11.080Z,92.41
2018-07-06T08:22:11.080Z,91.64
2018-07-06T08:23:11.089Z,92.22
2018-07-06T08:24:11.077Z,91.55
2018-07-06T08:25:11.084Z,92.80
2018-07-06T08:26:11.080Z,92.65
2018-07-06T08:27:11.082Z,92.75
2018-07-06T08:28:11.091Z,92.99
2018-07-06T08:29:11.099Z,90.72
2018-07-06T08:30:11.103Z,89.47
2018-07-06T08:31:11.093Z,88.35
2018-07-06T08:32:11.097Z,86.71
2018-07-06T08:33:11.098Z,85.64
2018-07-06T08:34:11.095Z,86.46
2018-07-06T08:35:11.095Z,84.24
2018-07-06T08:36:11.100Z,86.07
2018-07-06T08:37:11.104Z,84.82
2018-07-06T08:38:11.109Z,83.66
2018-07-06T08:39:11.119Z,84.38
2018-07-06T08:40:11.115Z,85.48
2018-07-06T08:41:11.117Z,79.97
2018-07-06T08:42:11.117Z,79.33
2018-07-06T08:43:11.141Z,77.98
2018-07-06T08:44:11.129Z,74.92
2018-07-06T08:45:11.134Z,72.63
2018-07-06T08:46:11.142Z,70.40
2018-07-06T08:47:11.140Z,69.18
2018-07-06T08:48:11.142Z,66.72
2018-07-06T08:49:11.149Z,68.18
2018-07-06T08:50:11.155Z,67.24
2018-07-06T08:51:11.168Z,63.85
2018-07-06T08:52:11.166Z,63.85
2018-07-06T08:53:11.176Z,63.88
2018-07-06T08:54:11.184Z,62.16
2018-07-06T08:55:11.186Z,60.03
2018-07-06T08:56:11.191Z,58.45
2018-07-06T08:57:11.202Z,60.81
2018-07-06T08:58:11.204Z,58.90
2018-07-06T08:59:11.211Z,59.19
2018-07-06T09:00:11.215Z,57.08
2018-07-06T09:01:11.223Z,57.54
2018-07-06T09:02:11.231Z,58.31
2018-07-06T09:03:11.236Z,59.00
2018-07-06T09:04:11.287Z,58.48
2018-07-06T09:05:11.254Z,58.97
2018-07-06T09:06:11.258Z,59.61
2018-07-06T09:07:11.312Z,60.10
2018-07-06T09:08:11.268Z,60.03
2018-07-06T09:09:11.277Z,60.71
2018-07-06T09:10:11.284Z,59.16
2018-07-06T09:11:11.292Z,58.03
2018-07-06T09:12:11.296Z,57.34
2018-07-06T09:13:11.303Z,58.83
2018-07-06T09:14:11.311Z,57.08
2018-07-06T09:15:11.316Z,58.25
2018-07-06T09:16:11.340Z,58.70
2018-07-06T09:17:11.329Z,58.73
2018-07-06T09:18:11.338Z,56.89
2018-07-06T09:19:11.343Z,56.30
2018-07-06T09:20:11.472Z,55.75
2018-07-06T09:21:11.358Z,54.88
2018-07-06T09:22:11.367Z,54.00
2018-07-06T09:23:11.383Z,53.91
2018-07-06T09:24:11.447Z,55.75
2018-07-06T09:25:11.395Z,53.06
2018-07-06T09:26:11.857Z,52.57
2018-07-06T09:27:11.402Z,53.35
2018-07-06T09:28:11.414Z,52.57
2018-07-06T09:29:11.421Z,52.21
2018-07-06T09:30:11.428Z,51.55
2018-07-06T09:31:11.434Z,50.29
2018-07-06T09:32:11.443Z,49.71
2018-07-06T09:33:11.454Z,49.61
2018-07-06T09:34:11.453Z,49.44
2018-07-06T09:35:11.464Z,49.05
2018-07-06T09:36:11.474Z,49.15
2018-07-06T09:37:11.495Z,49.37
2018-07-06T09:38:11.489Z,47.92
2018-07-06T09:39:11.504Z,46.95
2018-07-06T09:40:11.541Z,46.10
2018-07-06T09:41:11.520Z,45.42
2018-07-06T09:42:11.523Z,45.22
2018-07-06T09:43:11.531Z,45.42
2018-07-06T09:44:11.545Z,45.49
2018-07-06T09:45:11.566Z,45.98
2018-07-06T09:46:11.561Z,44.64
2018-07-06T09:47:11.570Z,45.12
2018-07-06T09:48:11.591Z,44.44
2018-07-06T09:49:11.591Z,44.34
2018-07-06T09:50:11.625Z,44.24
2018-07-06T09:51:11.607Z,43.93
2018-07-06T09:52:11.618Z,45.68
2018-07-06T09:53:11.624Z,45.88
2018-07-06T09:54:11.635Z,46.37
2018-07-06T09:55:11.668Z,45.10
2018-07-06T09:56:11.667Z,44.34
2018-07-06T09:57:11.677Z,44.05
2018-07-06T09:58:11.676Z,43.18
2018-07-06T09:59:11.686Z,43.57
2018-07-06T10:00:11.695Z,43.47
2018-07-06T10:01:11.732Z,44.24
2018-07-06T10:02:11.741Z,44.07
2018-07-06T10:03:11.741Z,44.27
2018-07-06T10:04:11.743Z,43.71
2018-07-06T10:05:11.745Z,42.44
2018-07-06T10:06:11.757Z,43.19
2018-07-06T10:07:11.784Z,43.02
2018-07-06T10:08:11.772Z,42.73
2018-07-06T10:09:11.785Z,42.24
2018-07-06T10:10:11.820Z,42.05
2018-07-06T10:11:11.807Z,42.44
2018-07-06T10:12:11.814Z,42.46
2018-07-06T10:13:11.829Z,41.87
2018-07-06T10:14:11.834Z,41.19
2018-07-06T10:15:11.857Z,40.01
2018-07-06T10:16:11.891Z,39.23
2018-07-06T10:17:11.871Z,39.33
2018-07-06T10:18:11.875Z,40.11
2018-07-06T10:19:11.884Z,39.36
2018-07-06T10:20:11.895Z,39.23
2018-07-06T10:21:11.912Z,40.41
2018-07-06T10:22:11.918Z,39.72
2018-07-06T10:23:11.932Z,39.65
2018-07-06T10:24:11.939Z,39.06
2018-07-06T10:25:11.950Z,39.37
2018-07-06T10:26:11.965Z,38.61
2018-07-06T10:27:11.977Z,37.45
2018-07-06T10:28:11.991Z,37.08
2018-07-06T10:29:12.011Z,37.18
2018-07-06T10:30:12.010Z,36.51
2018-07-06T10:31:12.033Z,35.53
2018-07-06T10:32:12.036Z,34.83
2018-07-06T10:33:12.075Z,35.63
2018-07-06T10:34:12.053Z,35.91
2018-07-06T10:35:12.067Z,35.44
2018-07-06T10:36:12.089Z,34.36
2018-07-06T10:37:12.100Z,34.84
2018-07-06T10:38:12.108Z,35.34
2018-07-06T10:39:12.141Z,34.84
2018-07-06T10:40:12.226Z,36.20
2018-07-06T10:41:12.143Z,35.53
2018-07-06T10:42:12.149Z,35.14
2018-07-06T10:43:12.184Z,35.34
2018-07-06T10:44:12.182Z,34.06
2018-07-06T10:45:12.208Z,34.74
2018-07-06T10:46:12.202Z,35.32
2018-07-06T10:47:12.218Z,34.83
2018-07-06T10:48:12.227Z,33.36
2018-07-06T10:49:12.240Z,33.38
2018-07-06T10:50:12.252Z,33.38
2018-07-06T10:51:12.263Z,33.59
2018-07-06T10:52:12.305Z,33.39
2018-07-06T10:53:12.296Z,33.00
2018-07-06T10:54:12.302Z,32.34
2018-07-06T10:55:12.318Z,32.42
2018-07-06T10:56:12.339Z,32.63
2018-07-06T10:57:12.344Z,33.12
2018-07-06T10:58:12.355Z,32.92
2018-07-06T10:59:12.373Z,33.02
2018-07-06T11:00:12.385Z,32.04
2018-07-06T11:01:12.396Z,30.55
2018-07-06T11:02:12.423Z,31.93
2018-07-06T11:03:12.421Z,32.03
2018-07-06T11:04:12.435Z,32.34
2018-07-06T11:05:12.446Z,32.04
2018-07-06T11:06:12.463Z,31.37
2018-07-06T11:07:12.474Z,30.87
2018-07-06T11:08:12.486Z,30.96
2018-07-06T11:09:12.498Z,30.55
2018-07-06T11:10:12.515Z,30.93
2018-07-06T11:11:12.522Z,30.82
2018-07-06T11:12:12.543Z,31.60
2018-07-06T11:13:12.551Z,31.99
2018-07-06T11:14:12.581Z,31.52
2018-07-06T11:15:12.580Z,31.81
2018-07-06T11:17:49.337Z,32.19
2018-07-06T11:18:45.079Z,31.80
2018-07-06T11:20:38.670Z,31.80
2018-07-06T11:21:38.688Z,33.65
2018-07-06T11:22:38.632Z,31.73
2018-07-06T11:23:38.774Z,31.63
2018-07-06T11:24:38.656Z,31.44
2018-07-06T11:25:38.673Z,31.16
2018-07-06T11:26:38.680Z,30.57
2018-07-06T11:27:38.690Z,31.35
2018-07-06T11:28:38.705Z,30.77
2018-07-06T11:29:38.725Z,30.67
2018-07-06T11:30:39.455Z,30.85
2018-07-06T11:31:38.743Z,31.52
2018-07-06T11:32:38.758Z,30.94
2018-07-06T11:33:38.769Z,30.96
2018-07-06T11:34:38.777Z,30.57
2018-07-06T11:35:38.796Z,31.16
2018-07-06T11:36:38.804Z,30.57
2018-07-06T11:37:38.828Z,30.36
2018-07-06T11:38:38.848Z,30.54
2018-07-06T11:39:38.850Z,31.32
2018-07-06T11:40:38.858Z,31.01
2018-07-06T11:41:38.869Z,29.63
2018-07-06T11:42:38.880Z,30.40
2018-07-06T11:43:38.899Z,30.76
2018-07-06T11:44:38.912Z,31.43
2018-07-06T11:45:38.918Z,32.40
2018-07-06T11:46:38.932Z,32.68
2018-07-06T11:47:38.944Z,32.96
2018-07-06T11:48:38.952Z,33.26
2018-07-06T11:49:38.971Z,33.36
2018-07-06T11:50:38.981Z,33.46
2018-07-06T11:51:39.001Z,33.65
2018-07-06T11:52:39.007Z,33.67
2018-07-06T11:53:39.031Z,33.50
2018-07-06T11:54:39.031Z,32.24
2018-07-06T11:55:39.037Z,31.84
2018-07-06T11:56:39.064Z,32.81
2018-07-06T11:57:39.062Z,33.11
2018-07-06T11:58:39.078Z,33.11
2018-07-06T11:59:39.109Z,32.55
2018-07-06T12:00:39.102Z,32.14
2018-07-06T12:01:39.123Z,32.42
2018-07-06T12:02:39.133Z,32.31
2018-07-06T12:03:39.144Z,32.99
2018-07-06T12:04:39.286Z,33.48
2018-07-06T12:05:39.168Z,33.18
2018-07-06T12:06:39.190Z,32.99
2018-07-06T12:07:39.193Z,33.64
2018-07-06T12:08:39.196Z,34.40
2018-07-06T12:09:39.214Z,35.18
2018-07-06T12:10:39.222Z,34.81
2018-07-06T12:11:39.238Z,34.53
2018-07-06T12:12:39.244Z,34.24
2018-07-06T12:13:39.256Z,34.06
2018-07-06T12:14:39.270Z,34.16
2018-07-06T12:15:39.325Z,34.14
2018-07-06T12:16:39.324Z,33.95
2018-07-06T12:17:39.304Z,33.93
2018-07-06T12:18:39.316Z,34.59
2018-07-06T12:19:39.327Z,35.38
2018-07-06T12:20:39.334Z,35.47
2018-07-06T12:21:39.342Z,35.57
2018-07-06T12:22:39.365Z,35.47
2018-07-06T12:23:39.362Z,35.78
2018-07-06T12:24:39.394Z,35.51
2018-07-06T12:25:39.407Z,34.83
2018-07-06T12:26:39.392Z,34.92
2018-07-06T12:27:39.402Z,34.18
2018-07-06T12:28:39.439Z,33.48
2018-07-06T12:29:39.454Z,32.81
2018-07-06T12:30:39.433Z,32.63
2018-07-06T12:31:39.445Z,32.91
2018-07-06T12:32:39.458Z,32.52
2018-07-06T12:33:39.494Z,32.82
2018-07-06T12:34:39.479Z,32.81
2018-07-06T12:35:39.507Z,33.11
2018-07-06T12:36:39.521Z,32.91
2018-07-06T12:37:39.503Z,33.48
2018-07-06T12:38:39.515Z,33.11
2018-07-06T12:39:39.529Z,33.02
2018-07-06T12:40:39.546Z,32.14
2018-07-06T12:41:39.640Z,32.26
2018-07-06T12:42:39.570Z,32.81
2018-07-06T12:43:39.644Z,33.30
2018-07-06T12:44:39.575Z,33.85
2018-07-06T12:45:39.588Z,34.53
2018-07-06T12:46:39.593Z,35.12
2018-07-06T12:47:39.601Z,35.59
2018-07-06T12:48:39.686Z,35.59
2018-07-06T12:49:39.628Z,36.35
2018-07-06T12:50:39.634Z,36.24
2018-07-06T12:51:39.681Z,37.12
2018-07-06T12:52:39.649Z,37.12
2018-07-06T12:53:39.656Z,37.31
2018-07-06T12:54:39.668Z,37.12
2018-07-06T12:55:39.690Z,37.23
2018-07-06T12:56:39.682Z,36.37
2018-07-06T12:57:39.704Z,35.00
2018-07-06T12:58:39.888Z,34.53
2018-07-06T12:59:39.708Z,33.65
2018-07-06T13:00:39.719Z,34.24
2018-07-06T13:01:39.727Z,34.24
2018-07-06T13:02:39.735Z,34.24
2018-07-06T13:03:39.752Z,33.46
2018-07-06T13:04:39.765Z,33.48
2018-07-06T13:05:39.767Z,33.17
2018-07-06T13:06:39.772Z,33.07
2018-07-06T13:07:39.811Z,33.85
2018-07-06T13:08:39.784Z,34.32
2018-07-06T13:09:39.794Z,33.64
2018-07-06T13:10:39.800Z,33.44
2018-07-06T13:11:39.812Z,33.82
2018-07-06T13:12:39.822Z,34.21
2018-07-06T13:13:39.854Z,34.09
2018-07-06T13:14:39.835Z,34.19
2018-07-06T13:15:39.846Z,34.37
2018-07-06T13:16:39.851Z,35.06
2018-07-06T13:17:39.859Z,35.34
2018-07-06T13:18:39.865Z,35.15
2018-07-06T13:19:39.875Z,35.53
2018-07-06T13:20:39.881Z,35.25
2018-07-06T13:21:39.903Z,35.15
2018-07-06T13:22:39.900Z,34.76
2018-07-06T13:23:39.911Z,34.78
2018-07-06T13:24:39.914Z,35.16
2018-07-06T13:25:39.921Z,35.06
2018-07-06T13:26:39.941Z,34.88
2018-07-06T13:27:39.952Z,35.05
2018-07-06T13:28:39.949Z,35.25
2018-07-06T13:29:39.964Z,36.02
2018-07-06T13:30:39.969Z,36.53
2018-07-06T13:31:39.974Z,36.14
2018-07-06T13:32:39.977Z,34.97
2018-07-06T13:33:40.057Z,34.79
2018-07-06T13:34:40.003Z,34.89
2018-07-06T13:35:40.005Z,33.82
2018-07-06T13:36:40.015Z,34.00
2018-07-06T13:37:40.025Z,34.58
2018-07-06T13:38:40.029Z,34.86
2018-07-06T13:39:40.054Z,34.76
2018-07-06T13:40:40.052Z,34.68
2018-07-06T13:41:40.102Z,34.58
2018-07-06T13:42:40.068Z,34.48
2018-07-06T13:43:40.062Z,35.25
2018-07-06T13:44:40.102Z,35.34
2018-07-06T13:45:40.093Z,35.34
2018-07-06T13:46:40.142Z,34.95
2018-07-06T13:47:40.095Z,35.25
2018-07-06T13:48:40.104Z,35.65
2018-07-06T13:49:40.115Z,34.78
2018-07-06T13:50:40.129Z,34.78
2018-07-06T13:51:40.130Z,34.48
2018-07-06T13:52:40.132Z,35.06
2018-07-06T13:53:40.158Z,35.36
2018-07-06T13:54:40.149Z,34.97
2018-07-06T13:55:40.159Z,34.69
2018-07-06T13:56:40.166Z,34.88
2018-07-06T13:57:40.171Z,34.88
2018-07-06T13:58:40.176Z,34.78
2018-07-06T13:59:40.184Z,34.78
2018-07-06T14:00:40.190Z,35.25
2018-07-06T14:01:40.202Z,34.58
2018-07-06T14:02:40.204Z,34.01
2018-07-06T14:03:40.219Z,33.53
2018-07-06T14:04:40.229Z,33.90
2018-07-06T14:05:40.239Z,34.19
2018-07-06T14:06:40.267Z,34.48
2018-07-06T14:07:40.241Z,34.27
2018-07-06T14:08:40.251Z,34.45
2018-07-06T14:09:40.257Z,35.13
2018-07-06T14:10:40.289Z,35.50
2018-07-06T14:11:40.271Z,36.18
2018-07-06T14:12:40.280Z,35.80
2018-07-06T14:13:40.281Z,35.89
2018-07-06T14:14:40.286Z,35.99
2018-07-06T14:15:40.295Z,36.55
2018-07-06T14:16:40.306Z,36.85
2018-07-06T14:17:40.310Z,37.14
2018-07-06T14:18:40.311Z,37.34
2018-07-06T14:19:40.392Z,39.37
2018-07-06T14:20:40.328Z,38.77
2018-07-06T14:21:40.329Z,39.16
2018-07-06T14:22:40.346Z,38.87
2018-07-06T14:23:40.340Z,39.06
2018-07-06T14:24:40.351Z,39.14
2018-07-06T14:25:40.354Z,38.85
2018-07-06T14:26:40.359Z,38.48
2018-07-06T14:27:40.365Z,38.29
2018-07-06T14:28:40.377Z,37.24
2018-07-06T14:29:40.377Z,36.75
2018-07-06T14:30:40.402Z,37.04
2018-07-06T14:31:40.392Z,37.41
2018-07-06T14:32:40.394Z,37.70
2018-07-06T14:33:40.399Z,37.30
2018-07-06T14:34:40.404Z,37.59
2018-07-06T14:35:40.444Z,37.39
2018-07-06T14:36:40.411Z,37.99
2018-07-06T14:37:40.416Z,37.78
2018-07-06T14:38:40.430Z,37.78
2018-07-06T14:39:40.433Z,37.10
2018-07-06T14:40:40.431Z,37.12
2018-07-06T14:41:40.435Z,37.20
2018-07-06T14:42:40.449Z,36.71
2018-07-06T14:43:40.446Z,37.01
2018-07-06T14:44:40.466Z,36.91
2018-07-06T14:45:40.456Z,36.81
2018-07-06T14:46:40.469Z,36.61
2018-07-06T14:47:40.465Z,37.22
2018-07-06T14:48:40.466Z,37.20
2018-07-06T14:49:40.471Z,37.30
2018-07-06T14:50:40.474Z,36.44
2018-07-06T14:51:40.483Z,37.41
2018-07-06T14:52:40.492Z,37.32
2018-07-06T14:53:40.488Z,36.83
2018-07-06T14:54:40.500Z,37.22
2018-07-06T14:55:40.501Z,37.41
2018-07-06T14:56:40.504Z,37.30
2018-07-06T14:57:40.507Z,37.20
2018-07-06T14:58:40.512Z,37.10
2018-07-06T14:59:40.518Z,36.24
2018-07-06T15:00:40.567Z,36.32
2018-07-06T15:01:40.537Z,36.24
2018-07-06T15:02:40.527Z,36.83
2018-07-06T15:03:40.532Z,37.22
2018-07-06T15:04:40.538Z,37.01
2018-07-06T15:05:40.542Z,37.20
2018-07-06T15:06:40.615Z,36.91
2018-07-06T15:07:40.554Z,37.01
2018-07-06T15:08:40.554Z,36.42
2018-07-06T15:09:40.558Z,36.81
2018-07-06T15:10:40.601Z,37.30
2018-07-06T15:11:40.566Z,37.01
2018-07-06T15:12:40.588Z,38.07
2018-07-06T15:13:40.576Z,37.39
2018-07-06T15:14:40.583Z,37.10
2018-07-06T15:15:40.580Z,37.30
2018-07-06T15:16:40.582Z,37.68
2018-07-06T15:17:40.644Z,37.49
2018-07-06T15:18:40.591Z,37.39
2018-07-06T15:19:40.597Z,37.22
2018-07-06T15:20:40.596Z,37.41
2018-07-06T15:21:40.602Z,37.39
2018-07-06T15:22:40.602Z,37.39
2018-07-06T15:23:41.538Z,37.39
2018-07-06T15:24:40.637Z,37.10
2018-07-06T15:25:40.617Z,37.01
2018-07-06T15:26:40.619Z,37.20
2018-07-06T15:27:40.700Z,37.01
2018-07-06T15:28:40.635Z,37.30
2018-07-06T15:29:40.628Z,37.39
2018-07-06T15:30:40.632Z,37.10
2018-07-06T15:31:40.680Z,36.61
2018-07-06T15:32:40.681Z,37.01
2018-07-06T15:33:40.644Z,37.49
2018-07-06T15:34:40.686Z,37.10
2018-07-06T15:35:40.689Z,37.20
2018-07-06T15:36:40.654Z,37.39
2018-07-06T15:37:40.657Z,37.01
2018-07-06T15:38:40.658Z,37.30
2018-07-06T15:39:40.665Z,36.81
2018-07-06T15:40:40.669Z,36.81
2018-07-06T15:41:40.672Z,36.71
2018-07-06T15:42:40.677Z,37.30
2018-07-06T15:43:40.677Z,37.20
2018-07-06T15:44:40.682Z,37.20
2018-07-06T15:45:40.685Z,36.71
2018-07-06T15:46:40.694Z,36.22
2018-07-06T15:47:40.694Z,36.81
2018-07-06T15:48:40.698Z,37.88
2018-07-06T15:49:40.760Z,37.68
2018-07-06T15:50:40.703Z,37.57
2018-07-06T15:51:40.704Z,37.18
2018-07-06T15:52:40.711Z,37.28
2018-07-06T15:53:40.712Z,37.57
2018-07-06T15:54:40.716Z,37.57
2018-07-06T15:55:40.721Z,37.76
2018-07-06T15:56:40.726Z,37.47
2018-07-06T15:57:40.725Z,37.86
2018-07-06T15:58:40.729Z,37.76
2018-07-06T15:59:40.733Z,38.15
2018-07-06T16:00:40.738Z,37.47
2018-07-06T16:01:40.740Z,37.57
2018-07-06T16:02:40.743Z,37.57
2018-07-06T16:03:40.750Z,37.86
2018-07-06T16:04:40.751Z,37.66
2018-07-06T16:05:40.753Z,37.47
2018-07-06T16:06:40.756Z,37.66
2018-07-06T16:07:40.762Z,37.66
2018-07-06T16:08:40.765Z,37.47
2018-07-06T16:09:40.768Z,37.55
2018-07-06T16:10:40.769Z,37.28
2018-07-06T16:11:40.776Z,37.66
2018-07-06T16:12:40.777Z,37.35
2018-07-06T16:13:40.777Z,37.74
2018-07-06T16:14:40.787Z,37.26
2018-07-06T16:15:40.816Z,37.07
2018-07-06T16:16:40.970Z,37.24
2018-07-06T16:17:40.805Z,37.24
2018-07-06T16:18:40.791Z,37.15
2018-07-06T16:19:40.804Z,37.73
2018-07-06T16:20:40.803Z,37.43
2018-07-06T16:21:40.803Z,37.24
2018-07-06T16:22:40.803Z,37.34
2018-07-06T16:23:40.806Z,37.24
2018-07-06T16:24:40.850Z,37.15
2018-07-06T16:25:40.818Z,37.53
2018-07-06T16:26:40.814Z,37.24
2018-07-06T16:27:40.815Z,37.53
2018-07-06T16:28:40.823Z,37.43
2018-07-06T16:29:40.824Z,37.24
2018-07-06T16:30:40.827Z,37.07
2018-07-06T16:31:40.837Z,36.87
2018-07-06T16:32:40.828Z,36.77
2018-07-06T16:33:40.839Z,36.58
2018-07-06T16:34:40.841Z,37.65
2018-07-06T16:35:40.844Z,37.07
2018-07-06T16:36:40.845Z,36.77
2018-07-06T16:37:40.843Z,37.16
2018-07-06T16:38:40.843Z,37.16
2018-07-06T16:39:40.854Z,37.15
2018-07-06T16:40:40.850Z,36.66
2018-07-06T16:41:40.850Z,37.24
2018-07-06T16:42:40.858Z,36.76
2018-07-06T16:43:40.861Z,37.34
2018-07-06T16:44:40.862Z,37.24
2018-07-06T16:45:40.866Z,36.76
2018-07-06T16:46:40.863Z,37.24
2018-07-06T16:47:40.867Z,37.24
2018-07-06T16:48:40.868Z,37.34
2018-07-06T16:49:40.874Z,37.24
2018-07-06T16:50:40.879Z,37.24
2018-07-06T16:51:41.666Z,37.43
2018-07-06T16:52:40.888Z,37.34
2018-07-06T16:53:40.884Z,37.15
2018-07-06T16:54:40.893Z,36.44
2018-07-06T16:55:40.887Z,36.25
2018-07-06T16:56:40.891Z,36.83
2018-07-06T16:57:40.895Z,36.64
2018-07-06T16:58:40.900Z,36.83
2018-07-06T16:59:40.897Z,36.93
2018-07-06T17:00:40.897Z,36.93
2018-07-06T17:01:40.900Z,36.93
2018-07-06T17:02:40.905Z,37.41
2018-07-06T17:03:40.908Z,36.93
2018-07-06T17:04:40.912Z,36.83
2018-07-06T17:05:40.911Z,37.59
2018-07-06T17:06:40.921Z,37.59
2018-07-06T17:07:40.913Z,38.07
2018-07-06T17:08:40.916Z,38.17
2018-07-06T17:09:41.051Z,38.46
2018-07-06T17:10:40.925Z,37.79
2018-07-06T17:11:40.923Z,38.27
2018-07-06T17:12:40.925Z,38.27
2018-07-06T17:13:40.931Z,37.79
2018-07-06T17:14:40.932Z,38.17
2018-07-06T17:15:40.929Z,38.37
2018-07-06T17:16:40.932Z,38.25
2018-07-06T17:17:40.944Z,37.77
2018-07-06T17:18:40.938Z,38.06
2018-07-06T17:19:40.940Z,37.96
2018-07-06T17:20:40.945Z,38.25
2018-07-06T17:21:40.941Z,38.54
2018-07-06T17:22:40.944Z,37.87
2018-07-06T17:23:40.951Z,38.15
2018-07-06T17:24:40.949Z,38.83
2018-07-06T17:25:40.961Z,38.73
2018-07-06T17:26:40.955Z,38.73
2018-07-06T17:27:40.953Z,38.64
2018-07-06T17:28:40.956Z,38.93
2018-07-06T17:29:40.952Z,39.03
2018-07-06T17:30:40.955Z,38.73
2018-07-06T17:31:40.963Z,38.73
2018-07-06T17:32:40.963Z,38.83
2018-07-06T17:33:40.961Z,38.93
2018-07-06T17:34:40.963Z,38.93
2018-07-06T17:35:40.965Z,39.03
2018-07-06T17:36:40.966Z,38.71
2018-07-06T17:37:40.972Z,39.69
2018-07-06T17:38:40.971Z,40.94
2018-07-06T17:39:40.975Z,39.51
2018-07-06T17:40:40.977Z,40.07
2018-07-06T17:41:40.977Z,39.12
2018-07-06T17:42:40.987Z,39.41
2018-07-06T17:43:40.979Z,39.41
2018-07-06T17:44:40.979Z,38.73
2018-07-06T17:45:40.981Z,39.49
2018-07-06T17:46:40.982Z,40.38
2018-07-06T17:47:40.988Z,39.20
2018-07-06T17:48:40.993Z,39.11
2018-07-06T17:49:40.985Z,39.11
2018-07-06T17:50:40.985Z,39.12
2018-07-06T17:51:40.987Z,38.81
2018-07-06T17:52:40.991Z,39.80
2018-07-06T17:53:41.019Z,38.73
2018-07-06T17:54:40.993Z,39.39
2018-07-06T17:55:40.991Z,39.01
2018-07-06T17:56:40.993Z,38.73
2018-07-06T17:57:40.994Z,38.93
2018-07-06T17:58:40.999Z,38.83
2018-07-06T17:59:41.003Z,38.71
2018-07-06T18:00:40.999Z,38.81
2018-07-06T18:01:40.999Z,38.62
2018-07-06T18:02:41.000Z,38.81
2018-07-06T18:03:41.059Z,38.71
2018-07-06T18:04:41.003Z,38.81
2018-07-06T18:05:41.007Z,38.04
2018-07-06T18:06:41.019Z,37.94
2018-07-06T18:07:41.008Z,37.24
2018-07-06T18:08:41.010Z,38.12
2018-07-06T18:09:41.013Z,38.21
2018-07-06T18:10:41.017Z,38.23
2018-07-06T18:11:41.009Z,37.63
2018-07-06T18:12:41.018Z,38.02
2018-07-06T18:13:41.011Z,38.02
2018-07-06T18:14:41.067Z,38.21
2018-07-06T18:15:41.013Z,38.12
2018-07-06T18:16:41.018Z,38.21
2018-07-06T18:17:41.027Z,38.50
2018-07-06T18:18:41.016Z,38.41
2018-07-06T18:19:41.025Z,37.81
2018-07-06T18:20:41.021Z,38.10
2018-07-06T18:21:41.022Z,38.29
2018-07-06T18:22:41.019Z,38.48
2018-07-06T18:23:41.024Z,38.29
2018-07-06T18:24:41.021Z,38.97
2018-07-06T18:25:41.028Z,38.58